createdAt,value
2023-04-18T00:01:30.401Z,101653.50
2023-04-18T00:03:57.058Z,101642.59
2023-04-18T00:06:23.724Z,101653.00
2023-04-18T00:08:51.630Z,101644.66
2023-04-18T00:11:18.505Z,101616.88
2023-04-18T00:13:45.072Z,101641.19
2023-04-18T00:16:11.718Z,101649.59
2023-04-18T00:18:38.317Z,101654.19
2023-04-18T00:21:05.236Z,101648.13
2023-04-18T00:23:31.832Z,101630.31
2023-04-18T00:26:00.229Z,101641.75
2023-04-18T00:28:27.395Z,101650.41
2023-04-18T00:30:54.992Z,101649.66
2023-04-18T00:33:21.614Z,101647.28
2023-04-18T00:35:51.994Z,101644.88
2023-04-18T00:38:18.626Z,101642.34
2023-04-18T00:40:47.847Z,101645.00
2023-04-18T00:43:16.172Z,101645.00
2023-04-18T00:45:42.805Z,101639.03
2023-04-18T00:48:10.976Z,101648.88
2023-04-18T00:50:37.865Z,101650.91
2023-04-18T00:53:04.728Z,101633.44
2023-04-18T00:55:31.535Z,101625.03
2023-04-18T00:57:58.528Z,101610.53
2023-04-18T01:00:26.910Z,101650.75
2023-04-18T01:02:53.724Z,101650.63
2023-04-18T01:05:21.308Z,101646.63
2023-04-18T01:07:49.048Z,101646.63
2023-04-18T01:10:15.797Z,101639.69
2023-04-18T01:12:42.507Z,101650.22
2023-04-18T01:15:09.562Z,101629.78
2023-04-18T01:17:38.159Z,101641.81
2023-04-18T01:20:05.671Z,101636.00
2023-04-18T01:22:33.364Z,101636.38
2023-04-18T01:25:06.850Z,101635.47
2023-04-18T01:27:33.501Z,101634.63
2023-04-18T01:30:00.200Z,101634.94
2023-04-18T01:32:29.773Z,101631.75
2023-04-18T01:34:56.321Z,101602.16
2023-04-18T01:37:22.860Z,101632.03
2023-04-18T01:39:49.431Z,101626.94
2023-04-18T01:42:20.019Z,101618.53
2023-04-18T01:44:46.617Z,101625.44
2023-04-18T01:47:13.168Z,101624.66
2023-04-18T01:49:39.886Z,101617.88
2023-04-18T01:52:06.581Z,101618.97
2023-04-18T01:54:33.216Z,101621.75
2023-04-18T01:56:59.729Z,101627.31
2023-04-18T01:59:27.717Z,101623.13
2023-04-18T02:01:54.767Z,101618.31
2023-04-18T02:04:21.557Z,101615.50
2023-04-18T02:06:48.154Z,101623.22
2023-04-18T02:09:14.819Z,101621.25
2023-04-18T02:11:42.873Z,101628.44
2023-04-18T02:14:09.493Z,101630.25
2023-04-18T02:16:37.631Z,101625.47
2023-04-18T02:19:04.309Z,101624.69
2023-04-18T02:21:30.810Z,101632.69
2023-04-18T02:23:57.730Z,101627.53
2023-04-18T02:26:24.286Z,101608.00
2023-04-18T02:28:50.926Z,101631.75
2023-04-18T02:31:17.490Z,101629.25
2023-04-18T02:33:46.613Z,101627.84
2023-04-18T02:36:13.916Z,101614.56
2023-04-18T02:38:42.303Z,101610.59
2023-04-18T02:41:08.843Z,101628.38
2023-04-18T02:43:35.371Z,101626.69
2023-04-18T02:46:03.022Z,101633.59
2023-04-18T02:48:29.682Z,101619.94
2023-04-18T02:51:02.813Z,101620.09
2023-04-18T02:53:30.785Z,101627.00
2023-04-18T02:55:57.708Z,101628.00
2023-04-18T02:58:32.304Z,101628.16
2023-04-18T03:01:13.437Z,101632.59
2023-04-18T03:04:02.902Z,101612.78
2023-04-18T03:06:38.969Z,101625.53
2023-04-18T03:09:06.716Z,101628.09
2023-04-18T03:11:36.752Z,101634.50
2023-04-18T03:14:04.370Z,101634.69
2023-04-18T03:16:40.588Z,101629.75
2023-04-18T03:19:10.376Z,101637.69
2023-04-18T03:21:36.959Z,101640.50
2023-04-18T03:24:05.884Z,101635.63
2023-04-18T03:26:34.476Z,101623.66
2023-04-18T03:29:01.442Z,101630.63
2023-04-18T03:31:28.135Z,101634.13
2023-04-18T03:33:54.982Z,101616.44
2023-04-18T03:36:21.535Z,101631.84
2023-04-18T03:38:48.136Z,101638.09
2023-04-18T03:41:16.168Z,101606.63
2023-04-18T03:43:42.813Z,101637.47
2023-04-18T03:46:09.579Z,101636.75
2023-04-18T03:48:37.117Z,101633.44
2023-04-18T03:51:08.001Z,101633.00
2023-04-18T03:53:35.724Z,101642.59
2023-04-18T03:56:02.297Z,101620.72
2023-04-18T03:58:51.565Z,101650.69
2023-04-18T04:01:20.023Z,101646.31
2023-04-18T04:03:46.773Z,101647.22
2023-04-18T04:06:14.165Z,101635.38
2023-04-18T04:08:40.703Z,101654.28
2023-04-18T04:11:07.826Z,101635.53
2023-04-18T04:13:34.334Z,101655.34
2023-04-18T04:16:02.623Z,101656.19
2023-04-18T04:18:29.298Z,101625.69
2023-04-18T04:20:57.646Z,101648.59
2023-04-18T04:23:41.801Z,101652.28
2023-04-18T04:26:09.968Z,101648.09
2023-04-18T04:28:43.983Z,101665.22
2023-04-18T04:31:12.652Z,101666.16
2023-04-18T04:33:40.560Z,101659.31
2023-04-18T04:36:16.677Z,101660.06
2023-04-18T04:38:46.723Z,101664.53
2023-04-18T04:41:13.421Z,101672.47
2023-04-18T04:43:40.087Z,101660.47
2023-04-18T04:46:17.983Z,101638.63
2023-04-18T04:48:44.991Z,101682.19
2023-04-18T04:51:11.677Z,101671.78
2023-04-18T04:53:38.332Z,101676.13
2023-04-18T04:56:06.911Z,101679.50
2023-04-18T04:58:34.125Z,101684.59
2023-04-18T05:01:14.788Z,101681.97
2023-04-18T05:03:43.308Z,101692.31
2023-04-18T05:06:10.169Z,101688.81
2023-04-18T05:08:36.876Z,101679.25
2023-04-18T05:11:03.538Z,101681.72
2023-04-18T05:13:30.128Z,101694.59
2023-04-18T05:15:56.807Z,101685.94
2023-04-18T05:18:23.381Z,101680.69
2023-04-18T05:20:51.532Z,101695.09
2023-04-18T05:23:18.130Z,101700.22
2023-04-18T05:25:44.758Z,101692.28
2023-04-18T05:28:11.302Z,101693.88
2023-04-18T05:30:38.001Z,101695.47
2023-04-18T05:33:04.639Z,101695.19
2023-04-18T05:35:31.503Z,101693.19
2023-04-18T05:37:59.715Z,101698.06
2023-04-18T05:40:26.727Z,101697.69
2023-04-18T05:42:53.649Z,101693.03
2023-04-18T05:45:20.228Z,101695.66
2023-04-18T05:47:47.235Z,101670.63
2023-04-18T05:50:13.801Z,101710.28
2023-04-18T05:52:40.445Z,101673.50
2023-04-18T05:55:09.300Z,101689.16
2023-04-18T05:57:35.916Z,101715.34
2023-04-18T06:00:02.589Z,101703.88
2023-04-18T06:02:39.341Z,101706.66
2023-04-18T06:05:06.938Z,101693.22
2023-04-18T06:07:33.673Z,101697.25
2023-04-18T06:10:00.288Z,101711.97
2023-04-18T06:12:28.197Z,101708.69
2023-04-18T06:14:54.778Z,101691.31
2023-04-18T06:17:21.672Z,101710.19
2023-04-18T06:19:48.337Z,101712.22
2023-04-18T06:22:14.857Z,101693.22
2023-04-18T06:24:41.441Z,101696.00
2023-04-18T06:27:14.947Z,101698.06
2023-04-18T06:29:48.797Z,101715.28
2023-04-18T06:32:15.453Z,101710.63
2023-04-18T06:34:42.062Z,101718.81
2023-04-18T06:37:08.637Z,101727.06
2023-04-18T06:39:35.271Z,101713.81
2023-04-18T06:42:01.988Z,101728.16
2023-04-18T06:44:28.838Z,101712.03
2023-04-18T06:46:56.852Z,101713.22
2023-04-18T06:49:26.382Z,101707.63
2023-04-18T06:51:53.406Z,101720.31
2023-04-18T06:54:20.287Z,101719.09
2023-04-18T06:56:46.982Z,101719.66
2023-04-18T06:59:13.704Z,101709.09
2023-04-18T07:01:41.397Z,101726.00
2023-04-18T07:04:09.557Z,101727.41
2023-04-18T07:06:36.286Z,101682.50
2023-04-18T07:09:03.093Z,101722.53
2023-04-18T07:11:29.837Z,101724.88
2023-04-18T07:13:56.452Z,101687.69
2023-04-18T07:16:23.156Z,101723.59
2023-04-18T07:18:49.752Z,101732.88
2023-04-18T07:21:18.685Z,101707.88
2023-04-18T07:23:45.336Z,101726.66
2023-04-18T07:26:11.901Z,101703.47
2023-04-18T07:28:38.559Z,101731.69
2023-04-18T07:31:05.158Z,101735.00
2023-04-18T07:33:31.797Z,101730.31
2023-04-18T07:35:58.398Z,101726.84
2023-04-18T07:38:27.043Z,101722.84
2023-04-18T07:40:57.069Z,101729.59
2023-04-18T07:43:23.776Z,101722.28
2023-04-18T07:45:51.258Z,101727.16
2023-04-18T07:48:17.944Z,101726.91
2023-04-18T07:50:44.465Z,101730.22
2023-04-18T07:53:11.058Z,101725.59
2023-04-18T07:55:38.943Z,101726.03
2023-04-18T07:58:05.568Z,101739.16
2023-04-18T08:00:32.208Z,101732.34
2023-04-18T08:02:58.919Z,101720.00
2023-04-18T08:05:25.667Z,101731.59
2023-04-18T08:07:52.401Z,101736.78
2023-04-18T08:10:18.999Z,101733.81
2023-04-18T08:12:46.962Z,101742.69
2023-04-18T08:15:13.753Z,101738.22
2023-04-18T08:17:40.374Z,101736.53
2023-04-18T08:20:07.728Z,101738.03
2023-04-18T08:22:37.826Z,101743.41
2023-04-18T08:25:10.873Z,101736.34
2023-04-18T08:27:37.470Z,101749.53
2023-04-18T08:30:07.148Z,101744.56
2023-04-18T08:32:35.636Z,101746.47
2023-04-18T08:35:02.304Z,101750.88
2023-04-18T08:37:28.858Z,101759.34
2023-04-18T08:39:55.489Z,101754.78
2023-04-18T08:42:23.298Z,101753.84
2023-04-18T08:44:50.036Z,101743.31
2023-04-18T08:47:18.005Z,101750.59
2023-04-18T08:49:44.621Z,101749.63
2023-04-18T08:52:14.248Z,101747.75
2023-04-18T08:54:41.449Z,101744.84
2023-04-18T08:57:09.448Z,101747.03
2023-04-18T08:59:36.276Z,101751.88
2023-04-18T09:02:04.313Z,101750.28
2023-04-18T09:04:40.601Z,101746.00
2023-04-18T09:07:09.161Z,101749.91
2023-04-18T09:09:43.611Z,101746.31
2023-04-18T09:12:11.491Z,101750.63
2023-04-18T09:14:38.282Z,101745.22
2023-04-18T09:17:05.000Z,101743.91
2023-04-18T09:19:31.588Z,101750.44
2023-04-18T09:22:02.020Z,101729.47
2023-04-18T09:24:29.186Z,101726.44
2023-04-18T09:26:56.906Z,101718.97
2023-04-18T09:29:42.232Z,101723.44
2023-04-18T09:32:09.280Z,101719.50
2023-04-18T09:34:41.771Z,101729.53
2023-04-18T09:37:11.119Z,101727.75
2023-04-18T09:39:38.633Z,101718.75
2023-04-18T09:42:05.612Z,101722.22
2023-04-18T09:44:32.163Z,101723.06
2023-04-18T09:46:58.777Z,101726.06
2023-04-18T09:49:25.358Z,101719.09
2023-04-18T09:51:54.291Z,101722.44
2023-04-18T09:54:24.094Z,101712.81
2023-04-18T09:56:52.082Z,101710.03
2023-04-18T09:59:32.617Z,101699.78
2023-04-18T10:01:59.750Z,101694.75
2023-04-18T10:04:28.068Z,101690.34
2023-04-18T10:06:54.812Z,101706.94
2023-04-18T10:09:23.344Z,101710.44
2023-04-18T10:11:50.252Z,101714.91
2023-04-18T10:14:17.434Z,101664.38
2023-04-18T10:16:44.773Z,101713.72
2023-04-18T10:19:22.108Z,101708.41
2023-04-18T10:21:53.179Z,101659.81
2023-04-18T10:24:48.731Z,101708.59
2023-04-18T10:27:15.769Z,101712.50
2023-04-18T10:29:50.269Z,101697.00
2023-04-18T10:32:18.033Z,101675.56
2023-04-18T10:34:46.139Z,101691.06
2023-04-18T10:37:13.020Z,101686.28
2023-04-18T10:39:58.290Z,101685.75
2023-04-18T10:42:58.566Z,101689.63
2023-04-18T10:45:26.388Z,101684.88
2023-04-18T10:48:21.905Z,101680.97
2023-04-18T10:51:12.671Z,101683.63
2023-04-18T10:53:39.785Z,101689.44
2023-04-18T10:56:09.756Z,101683.91
2023-04-18T10:58:36.688Z,101685.59
2023-04-18T11:01:04.574Z,101678.50
2023-04-18T11:03:32.839Z,101677.66
2023-04-18T11:06:01.726Z,101679.09
2023-04-18T11:08:29.080Z,101677.09
2023-04-18T11:10:58.798Z,101676.84
2023-04-18T11:13:27.149Z,101671.38
2023-04-18T11:15:54.099Z,101678.38
2023-04-18T11:18:20.712Z,101677.00
2023-04-18T11:20:48.389Z,101665.66
2023-04-18T11:23:16.885Z,101661.28
2023-04-18T11:25:43.401Z,101669.38
2023-04-18T11:28:10.311Z,101662.59
2023-04-18T11:30:39.795Z,101657.50
2023-04-18T11:33:07.693Z,101659.28
2023-04-18T11:35:37.635Z,101652.75
2023-04-18T11:38:05.313Z,101654.22
2023-04-18T11:40:31.879Z,101639.06
2023-04-18T11:43:01.174Z,101657.91
2023-04-18T11:45:28.215Z,101667.06
2023-04-18T11:47:57.572Z,101662.50
2023-04-18T11:50:25.004Z,101658.44
2023-04-18T11:52:53.009Z,101657.06
2023-04-18T11:55:21.660Z,101656.16
2023-04-18T11:57:53.037Z,101660.38
2023-04-18T12:00:29.956Z,101661.06
2023-04-18T12:02:59.079Z,101662.81
2023-04-18T12:05:26.489Z,101657.50
2023-04-18T12:07:53.374Z,101648.97
2023-04-18T12:10:25.320Z,101665.38
2023-04-18T12:12:53.163Z,101644.50
2023-04-18T12:15:20.569Z,101671.13
2023-04-18T12:17:47.994Z,101678.50
2023-04-18T12:20:15.893Z,101665.06
2023-04-18T12:22:44.839Z,101668.63
2023-04-18T12:25:16.529Z,101657.81
2023-04-18T12:27:46.788Z,101669.31
2023-04-18T12:30:14.268Z,101666.81
2023-04-18T12:32:40.976Z,101664.66
2023-04-18T12:35:08.619Z,101660.34
2023-04-18T12:37:36.523Z,101658.06
2023-04-18T12:40:03.203Z,101658.06
2023-04-18T12:42:29.707Z,101666.16
2023-04-18T12:44:56.216Z,101661.22
2023-04-18T12:47:22.783Z,101666.47
2023-04-18T12:49:49.345Z,101651.72
2023-04-18T12:52:15.871Z,101653.22
2023-04-18T12:54:43.809Z,101644.91
2023-04-18T12:57:10.316Z,101657.34
2023-04-18T12:59:36.819Z,101643.84
2023-04-18T13:02:03.517Z,101647.63
2023-04-18T13:04:30.258Z,101650.34
2023-04-18T13:06:57.232Z,101648.81
2023-04-18T13:09:23.854Z,101649.75
2023-04-18T13:11:51.725Z,101659.81
2023-04-18T13:14:18.581Z,101639.75
2023-04-18T13:16:45.205Z,101655.00
2023-04-18T13:19:11.887Z,101647.44
2023-04-18T13:21:38.548Z,101650.59
2023-04-18T13:24:05.597Z,101652.66
2023-04-18T13:26:32.190Z,101650.91
2023-04-18T13:29:00.072Z,101648.78
2023-04-18T13:31:26.645Z,101651.72
2023-04-18T13:33:53.169Z,101655.25
2023-04-18T13:36:20.120Z,101655.34
2023-04-18T13:38:47.369Z,101657.63
2023-04-18T13:41:13.950Z,101650.16
2023-04-18T13:43:40.505Z,101649.16
2023-04-18T13:46:08.646Z,101657.19
2023-04-18T13:48:35.317Z,101644.59
2023-04-18T13:51:02.198Z,101645.28
2023-04-18T13:53:30.744Z,101656.47
2023-04-18T13:55:57.752Z,101653.88
2023-04-18T13:58:24.374Z,101652.44
2023-04-18T14:00:50.884Z,101650.75
2023-04-18T14:03:18.842Z,101649.72
2023-04-18T14:05:45.638Z,101651.00
2023-04-18T14:08:12.170Z,101657.03
2023-04-18T14:10:38.872Z,101664.19
2023-04-18T14:13:05.465Z,101661.59
2023-04-18T14:15:32.071Z,101650.16
2023-04-18T14:17:58.680Z,101644.44
2023-04-18T14:20:26.715Z,101657.53
2023-04-18T14:22:53.402Z,101659.84
2023-04-18T14:25:19.945Z,101650.00
2023-04-18T14:27:47.635Z,101650.16
2023-04-18T14:30:15.050Z,101644.06
2023-04-18T14:32:41.633Z,101637.41
2023-04-18T14:35:09.816Z,101647.94
2023-04-18T14:37:37.799Z,101633.66
2023-04-18T14:40:05.201Z,101649.91
2023-04-18T14:42:31.762Z,101630.69
2023-04-18T14:44:58.378Z,101639.31
2023-04-18T14:47:24.939Z,101643.00
2023-04-18T14:49:51.454Z,101660.22
2023-04-18T14:52:18.061Z,101654.50
2023-04-18T14:54:46.149Z,101649.69
2023-04-18T14:57:13.069Z,101641.41
2023-04-18T14:59:39.600Z,101628.56
2023-04-18T15:02:06.832Z,101642.53
2023-04-18T15:04:33.448Z,101637.41
2023-04-18T15:07:00.159Z,101629.38
2023-04-18T15:09:26.735Z,101628.53
2023-04-18T15:11:54.672Z,101633.75
2023-04-18T15:14:21.236Z,101632.66
2023-04-18T15:16:48.948Z,101625.38
2023-04-18T15:19:15.713Z,101617.63
2023-04-18T15:21:42.351Z,101630.19
2023-04-18T15:24:08.889Z,101624.56
2023-04-18T15:26:35.477Z,101612.25
2023-04-18T15:29:03.712Z,101612.16
2023-04-18T15:31:30.563Z,101621.06
2023-04-18T15:33:57.099Z,101621.06
2023-04-18T15:36:23.799Z,101612.34
2023-04-18T15:38:50.315Z,101594.75
2023-04-18T15:41:16.827Z,101588.06
2023-04-18T15:43:43.608Z,101606.81
2023-04-18T15:46:11.614Z,101605.66
2023-04-18T15:48:38.448Z,101605.66
2023-04-18T15:51:05.063Z,101595.59
2023-04-18T15:53:31.604Z,101603.31
2023-04-18T15:55:58.109Z,101603.13
2023-04-18T15:58:24.644Z,101605.31
2023-04-18T16:00:51.195Z,101572.00
2023-04-18T16:03:19.295Z,101600.31
2023-04-18T16:05:45.984Z,101591.44
2023-04-18T16:08:12.494Z,101584.56
2023-04-18T16:10:39.011Z,101578.53
2023-04-18T16:13:05.922Z,101596.63
2023-04-18T16:15:33.017Z,101586.38
2023-04-18T16:17:59.845Z,101593.88
2023-04-18T16:20:27.805Z,101591.25
2023-04-18T16:22:54.331Z,101594.44
2023-04-18T16:25:20.847Z,101608.34
2023-04-18T16:27:47.429Z,101605.28
2023-04-18T16:30:15.299Z,101596.16
2023-04-18T16:32:41.957Z,101605.50
2023-04-18T16:35:09.459Z,101606.63
2023-04-18T16:37:38.237Z,101618.88
2023-04-18T16:40:06.439Z,101604.31
2023-04-18T16:42:33.256Z,101607.53
2023-04-18T16:45:00.903Z,101599.69
2023-04-18T16:47:27.681Z,101602.75
2023-04-18T16:49:54.844Z,101588.47
2023-04-18T16:52:22.012Z,101594.69
2023-04-18T16:54:52.432Z,101585.34
2023-04-18T16:57:19.219Z,101599.75
2023-04-18T16:59:45.790Z,101604.97
2023-04-18T17:02:12.465Z,101609.16
2023-04-18T17:04:39.288Z,101601.75
2023-04-18T17:07:06.107Z,101603.56
2023-04-18T17:09:32.662Z,101608.31
2023-04-18T17:12:00.563Z,101610.28
2023-04-18T17:14:27.128Z,101624.59
2023-04-18T17:16:53.945Z,101606.00
2023-04-18T17:19:20.508Z,101616.59
2023-04-18T17:21:47.047Z,101617.88
2023-04-18T17:24:13.654Z,101618.38
2023-04-18T17:26:40.173Z,101618.53
2023-04-18T17:29:08.449Z,101615.50
2023-04-18T17:31:35.048Z,101621.63
2023-04-18T17:34:01.717Z,101610.31
2023-04-18T17:36:28.319Z,101616.50
2023-04-18T17:38:55.162Z,101620.50
2023-04-18T17:41:22.105Z,101631.28
2023-04-18T17:43:48.721Z,101623.47
2023-04-18T17:46:16.734Z,101634.28
2023-04-18T17:48:43.312Z,101636.47
2023-04-18T17:51:09.807Z,101636.38
2023-04-18T17:53:36.399Z,101639.59
2023-04-18T17:56:03.222Z,101640.16
2023-04-18T17:58:29.813Z,101646.69
2023-04-18T18:00:56.402Z,101647.56
2023-04-18T18:03:24.626Z,101649.38
2023-04-18T18:05:52.116Z,101640.78
2023-04-18T18:08:18.863Z,101655.06
2023-04-18T18:10:46.631Z,101639.84
2023-04-18T18:13:13.355Z,101660.88
2023-04-18T18:15:39.916Z,101657.19
2023-04-18T18:18:06.510Z,101659.22
2023-04-18T18:20:34.513Z,101672.31
2023-04-18T18:23:01.092Z,101664.03
2023-04-18T18:25:27.677Z,101671.56
2023-04-18T18:27:54.213Z,101670.28
2023-04-18T18:30:20.820Z,101669.56
2023-04-18T18:32:47.448Z,101623.25
2023-04-18T18:35:14.027Z,101672.84
2023-04-18T18:37:41.953Z,101667.94
2023-04-18T18:40:09.465Z,101679.94
2023-04-18T18:42:36.751Z,101678.38
2023-04-18T18:45:03.761Z,101654.59
2023-04-18T18:47:30.595Z,101683.88
2023-04-18T18:49:57.520Z,101693.91
2023-04-18T18:52:24.127Z,101699.47
2023-04-18T18:54:52.859Z,101700.41
2023-04-18T18:57:19.391Z,101675.28
2023-04-18T18:59:46.101Z,101706.84
2023-04-18T19:02:12.751Z,101709.75
2023-04-18T19:04:39.492Z,101711.22
2023-04-18T19:07:06.260Z,101710.63
2023-04-18T19:09:32.872Z,101718.88
2023-04-18T19:12:00.846Z,101711.13
2023-04-18T19:14:27.383Z,101709.44
2023-04-18T19:16:53.908Z,101713.69
2023-04-18T19:19:20.461Z,101670.72
2023-04-18T19:21:47.140Z,101715.88
2023-04-18T19:24:13.761Z,101713.22
2023-04-18T19:26:40.889Z,101715.38
2023-04-18T19:29:09.994Z,101714.28
2023-04-18T19:31:36.580Z,101716.94
2023-04-18T19:34:03.473Z,101722.03
2023-04-18T19:36:30.038Z,101694.97
2023-04-18T19:38:56.586Z,101726.97
2023-04-18T19:41:24.094Z,101726.38
2023-04-18T19:43:50.705Z,101706.25
2023-04-18T19:46:18.671Z,101726.50
2023-04-18T19:48:45.330Z,101727.59
2023-04-18T19:51:11.954Z,101723.38
2023-04-18T19:53:38.888Z,101723.13
2023-04-18T19:56:05.464Z,101727.22
2023-04-18T19:58:35.558Z,101726.75
2023-04-18T20:01:02.166Z,101736.91
2023-04-18T20:03:30.266Z,101732.78
2023-04-18T20:05:57.004Z,101746.41
2023-04-18T20:08:23.640Z,101715.44
2023-04-18T20:10:50.165Z,101739.78
2023-04-18T20:13:16.723Z,101736.44
2023-04-18T20:15:43.421Z,101743.16
2023-04-18T20:18:10.041Z,101738.34
2023-04-18T20:20:37.966Z,101741.00
2023-04-18T20:23:04.545Z,101729.16
2023-04-18T20:25:32.763Z,101739.44
2023-04-18T20:27:59.398Z,101742.44
2023-04-18T20:30:26.044Z,101732.19
2023-04-18T20:32:52.667Z,101705.56
2023-04-18T20:35:19.288Z,101734.97
2023-04-18T20:37:47.219Z,101730.88
2023-04-18T20:40:13.773Z,101739.53
2023-04-18T20:42:40.344Z,101687.53
2023-04-18T20:45:08.154Z,101736.19
2023-04-18T20:47:34.796Z,101710.88
2023-04-18T20:50:01.497Z,101695.59
2023-04-18T20:52:28.099Z,101728.09
2023-04-18T20:54:56.005Z,101739.06
2023-04-18T20:57:22.615Z,101704.63
2023-04-18T20:59:49.200Z,101722.81
2023-04-18T21:02:15.850Z,101756.31
2023-04-18T21:04:42.625Z,101741.47
2023-04-18T21:07:09.230Z,101715.72
2023-04-18T21:09:36.099Z,101755.84
2023-04-18T21:12:05.328Z,101744.28
2023-04-18T21:14:32.014Z,101752.44
2023-04-18T21:16:58.872Z,101719.56
2023-04-18T21:19:25.499Z,101751.75
2023-04-18T21:21:52.182Z,101758.47
2023-04-18T21:24:19.028Z,101762.34
2023-04-18T21:26:45.610Z,101756.31
2023-04-18T21:29:13.548Z,101752.09
2023-04-18T21:31:40.434Z,101759.34
2023-04-18T21:34:07.033Z,101750.16
2023-04-18T21:36:33.649Z,101745.94
2023-04-18T21:39:00.853Z,101767.75
2023-04-18T21:41:27.533Z,101759.66
2023-04-18T21:43:54.149Z,101735.09
2023-04-18T21:46:22.269Z,101762.47
2023-04-18T21:48:48.975Z,101767.25
2023-04-18T21:51:16.447Z,101759.09
2023-04-18T21:53:43.335Z,101749.91
2023-04-18T21:56:10.164Z,101725.69
2023-04-18T21:58:36.697Z,101759.66
2023-04-18T22:01:03.528Z,101765.94
2023-04-18T22:03:32.715Z,101761.00
2023-04-18T22:05:59.602Z,101765.44
2023-04-18T22:08:26.479Z,101770.53
2023-04-18T22:10:53.647Z,101768.00
2023-04-18T22:13:20.250Z,101767.50
2023-04-18T22:15:46.789Z,101766.88
2023-04-18T22:18:13.750Z,101767.72
2023-04-18T22:20:41.795Z,101752.31
2023-04-18T22:23:08.449Z,101761.84
2023-04-18T22:25:35.514Z,101751.09
2023-04-18T22:28:02.475Z,101744.13
2023-04-18T22:30:29.009Z,101756.41
2023-04-18T22:32:55.604Z,101720.88
2023-04-18T22:35:22.165Z,101764.47
2023-04-18T22:37:50.029Z,101758.69
2023-04-18T22:40:16.856Z,101761.34
2023-04-18T22:42:43.484Z,101765.06
2023-04-18T22:45:10.815Z,101759.03
2023-04-18T22:47:37.424Z,101721.19
2023-04-18T22:50:04.684Z,101770.09
2023-04-18T22:52:31.312Z,101768.28
2023-04-18T22:54:59.233Z,101768.41
2023-04-18T22:57:25.770Z,101769.97
2023-04-18T22:59:52.282Z,101775.28
2023-04-18T23:02:19.055Z,101766.00
2023-04-18T23:04:45.823Z,101772.75
2023-04-18T23:07:12.667Z,101770.56
2023-04-18T23:09:39.299Z,101777.31
2023-04-18T23:12:07.247Z,101773.00
2023-04-18T23:14:33.772Z,101770.81
2023-04-18T23:17:00.416Z,101769.84
2023-04-18T23:19:26.938Z,101774.31
2023-04-18T23:21:53.486Z,101769.00
2023-04-18T23:24:20.018Z,101768.16
2023-04-18T23:26:46.548Z,101735.25
2023-04-18T23:29:14.414Z,101763.81
2023-04-18T23:31:41.062Z,101766.34
2023-04-18T23:34:07.634Z,101770.81
2023-04-18T23:36:34.179Z,101767.31
2023-04-18T23:39:00.741Z,101761.25
2023-04-18T23:41:27.247Z,101774.13
2023-04-18T23:43:53.861Z,101774.13
2023-04-18T23:46:21.885Z,101770.53
2023-04-18T23:48:48.736Z,101775.81
2023-04-18T23:51:15.277Z,101733.59
2023-04-18T23:53:42.083Z,101758.00
2023-04-18T23:56:08.677Z,101777.63
2023-04-18T23:58:35.289Z,101779.69
